createdAt,value
2018-07-15T00:02:28.793Z,16.60
2018-07-15T00:04:59.442Z,16.60
2018-07-15T00:07:30.346Z,16.60
2018-07-15T00:10:01.689Z,16.60
2018-07-15T00:12:32.666Z,16.60
2018-07-15T00:15:03.387Z,16.50
2018-07-15T00:17:34.122Z,16.50
2018-07-15T00:20:04.912Z,16.50
2018-07-15T00:22:35.989Z,16.50
2018-07-15T00:25:06.786Z,16.50
2018-07-15T00:27:38.029Z,16.40
2018-07-15T00:30:08.647Z,16.20
2018-07-15T00:35:09.922Z,16.10
2018-07-15T00:37:40.738Z,16.00
2018-07-15T00:40:12.046Z,16.10
2018-07-15T00:42:42.967Z,16.00
2018-07-15T00:47:43.812Z,15.90
2018-07-15T00:50:14.899Z,15.80
2018-07-15T00:52:45.807Z,15.80
2018-07-15T00:55:16.597Z,15.70
2018-07-15T00:57:47.130Z,15.70
2018-07-15T01:00:23.322Z,15.70
2018-07-15T01:02:54.058Z,15.70
2018-07-15T01:05:24.806Z,15.60
2018-07-15T01:07:55.615Z,15.60
2018-07-15T01:10:26.406Z,15.50
2018-07-15T01:12:57.203Z,15.50
2018-07-15T01:15:28.366Z,15.50
2018-07-15T01:17:59.203Z,15.50
2018-07-15T01:20:30.032Z,15.40
2018-07-15T01:23:01.428Z,15.40
2018-07-15T01:25:32.297Z,15.40
2018-07-15T01:28:02.875Z,15.40
2018-07-15T01:30:33.541Z,15.40
2018-07-15T01:33:04.816Z,15.40
2018-07-15T01:35:35.710Z,15.30
2018-07-15T01:38:06.635Z,15.30
2018-07-15T01:40:38.006Z,15.20
2018-07-15T01:43:08.734Z,15.20
2018-07-15T01:45:39.808Z,15.20
2018-07-15T01:48:10.480Z,15.20
2018-07-15T01:50:41.278Z,15.10
2018-07-15T01:53:11.838Z,15.10
2018-07-15T01:55:42.645Z,15.10
2018-07-15T01:58:13.344Z,15.00
2018-07-15T02:00:44.073Z,15.00
2018-07-15T02:03:15.246Z,15.00
2018-07-15T02:05:45.837Z,15.00
2018-07-15T02:08:16.527Z,15.00
2018-07-15T02:10:47.697Z,14.90
2018-07-15T02:13:18.516Z,14.90
2018-07-15T02:15:49.162Z,15.00
2018-07-15T02:18:19.906Z,15.00
2018-07-15T02:20:50.921Z,14.90
2018-07-15T02:23:21.633Z,14.80
2018-07-15T02:25:52.113Z,14.80
2018-07-15T02:28:22.710Z,14.80
2018-07-15T02:30:53.805Z,14.80
2018-07-15T02:33:24.541Z,14.70
2018-07-15T02:35:55.434Z,14.60
2018-07-15T02:38:26.092Z,14.50
2018-07-15T02:40:56.801Z,14.50
2018-07-15T02:43:27.798Z,14.40
2018-07-15T02:45:58.546Z,14.40
2018-07-15T02:48:29.112Z,14.40
2018-07-15T02:50:59.916Z,14.30
2018-07-15T02:53:30.475Z,14.30
2018-07-15T02:56:01.314Z,14.30
2018-07-15T03:01:01.990Z,14.30
2018-07-15T03:03:32.745Z,14.20
2018-07-15T03:06:03.698Z,14.20
2018-07-15T03:08:34.608Z,14.20
2018-07-15T03:11:05.365Z,14.20
2018-07-15T03:13:36.113Z,14.20
2018-07-15T03:16:07.184Z,14.10
2018-07-15T03:18:37.994Z,14.00
2018-07-15T03:21:08.705Z,14.00
2018-07-15T03:23:39.260Z,14.00
2018-07-15T03:26:09.980Z,13.90
2018-07-15T03:28:41.166Z,13.90
2018-07-15T03:31:11.857Z,13.90
2018-07-15T03:33:42.653Z,13.90
2018-07-15T03:36:13.354Z,13.90
2018-07-15T03:38:44.066Z,13.90
2018-07-15T03:41:15.011Z,13.80
2018-07-15T03:43:46.105Z,13.80
2018-07-15T03:46:16.893Z,13.80
2018-07-15T03:48:47.469Z,13.80
2018-07-15T03:51:18.333Z,13.80
2018-07-15T03:53:49.236Z,13.80
2018-07-15T03:56:20.278Z,13.80
2018-07-15T03:58:50.969Z,13.80
2018-07-15T04:01:21.885Z,13.80
2018-07-15T04:03:53.857Z,13.80
2018-07-15T04:06:24.610Z,13.80
2018-07-15T04:08:55.429Z,13.80
2018-07-15T04:11:25.880Z,13.80
2018-07-15T04:13:56.774Z,13.80
2018-07-15T04:16:27.582Z,13.80
2018-07-15T04:18:58.527Z,13.90
2018-07-15T04:21:29.249Z,13.90
2018-07-15T04:24:00.060Z,13.90
2018-07-15T04:26:31.585Z,13.90
2018-07-15T04:29:02.317Z,13.80
2018-07-15T04:31:32.877Z,13.90
2018-07-15T04:34:03.871Z,13.80
2018-07-15T04:36:34.561Z,13.80
2018-07-15T04:39:06.149Z,13.80
2018-07-15T04:41:36.910Z,13.80
2018-07-15T04:44:08.205Z,13.70
2018-07-15T04:46:38.637Z,13.70
2018-07-15T04:49:09.741Z,13.70
2018-07-15T04:51:40.501Z,13.70
2018-07-15T04:54:11.245Z,13.80
2018-07-15T04:56:42.431Z,13.70
2018-07-15T04:59:13.274Z,13.80
2018-07-15T05:01:44.241Z,13.80
2018-07-15T05:04:15.305Z,13.80
2018-07-15T05:06:46.359Z,13.80
2018-07-15T05:09:17.074Z,13.90
2018-07-15T05:11:48.001Z,13.90
2018-07-15T05:14:18.952Z,13.90
2018-07-15T05:16:50.140Z,13.90
2018-07-15T05:19:20.733Z,14.00
2018-07-15T05:21:51.589Z,14.10
2018-07-15T05:24:22.572Z,14.20
2018-07-15T05:26:53.414Z,14.30
2018-07-15T05:29:24.085Z,14.50
2018-07-15T05:31:54.805Z,14.70
2018-07-15T05:34:26.189Z,14.90
2018-07-15T05:36:56.835Z,15.10
2018-07-15T05:39:27.779Z,15.40
2018-07-15T05:41:58.539Z,15.50
2018-07-15T05:44:29.282Z,15.60
2018-07-15T05:46:59.973Z,15.80
2018-07-15T05:49:32.369Z,16.00
2018-07-15T05:52:03.174Z,16.20
2018-07-15T05:54:33.906Z,16.20
2018-07-15T05:57:04.823Z,16.30
2018-07-15T05:59:35.334Z,16.40
2018-07-15T06:02:06.826Z,16.60
2018-07-15T06:04:37.426Z,16.80
2018-07-15T06:09:38.317Z,16.60
2018-07-15T06:12:09.089Z,16.40
2018-07-15T06:14:39.945Z,16.70
2018-07-15T06:17:11.057Z,17.00
2018-07-15T06:19:41.839Z,17.30
2018-07-15T06:22:12.571Z,17.50
2018-07-15T06:24:43.817Z,17.70
2018-07-15T06:27:14.482Z,18.00
2018-07-15T06:29:45.209Z,18.10
2018-07-15T06:32:16.011Z,18.30
2018-07-15T06:34:47.141Z,18.50
2018-07-15T06:37:18.048Z,18.70
2018-07-15T06:39:49.398Z,18.90
2018-07-15T06:42:20.350Z,19.00
2018-07-15T06:44:51.110Z,18.60
2018-07-15T06:47:21.888Z,18.70
2018-07-15T06:49:52.871Z,19.20
2018-07-15T06:52:23.943Z,19.70
2018-07-15T06:54:54.830Z,19.40
2018-07-15T06:57:25.646Z,19.50
2018-07-15T06:59:57.229Z,20.00
2018-07-15T07:02:29.206Z,20.30
2018-07-15T07:04:59.750Z,20.60
2018-07-15T07:07:30.597Z,20.80
2018-07-15T07:10:01.418Z,20.90
2018-07-15T07:12:32.331Z,21.00
2018-07-15T07:15:03.145Z,21.10
2018-07-15T07:17:33.796Z,21.20
2018-07-15T07:20:04.741Z,21.30
2018-07-15T07:22:35.961Z,20.80
2018-07-15T07:25:06.977Z,21.10
2018-07-15T07:27:37.922Z,20.90
2018-07-15T07:30:09.134Z,21.30
2018-07-15T07:32:40.209Z,21.60
2018-07-15T07:35:12.428Z,22.00
2018-07-15T07:37:43.525Z,22.20
2018-07-15T07:40:14.386Z,22.40
2018-07-15T07:42:45.240Z,22.60
2018-07-15T07:45:16.005Z,23.00
2018-07-15T07:47:46.746Z,22.80
2018-07-15T07:50:17.651Z,23.10
2018-07-15T07:52:48.401Z,23.40
2018-07-15T07:55:19.427Z,23.40
2018-07-15T07:57:49.894Z,22.70
2018-07-15T08:00:20.577Z,22.50
2018-07-15T08:02:51.357Z,22.50
2018-07-15T08:05:23.582Z,23.10
2018-07-15T08:07:54.354Z,23.70
2018-07-15T08:10:25.090Z,23.30
2018-07-15T08:12:56.001Z,23.70
2018-07-15T08:15:26.888Z,23.70
2018-07-15T08:17:58.301Z,24.10
2018-07-15T08:20:29.348Z,24.30
2018-07-15T08:22:59.961Z,24.80
2018-07-15T08:25:30.606Z,25.00
2018-07-15T08:28:01.036Z,25.20
2018-07-15T08:30:42.571Z,25.30
2018-07-15T08:33:13.371Z,25.40
2018-07-15T08:35:44.747Z,25.60
2018-07-15T08:38:15.410Z,25.70
2018-07-15T08:40:46.264Z,25.80
2018-07-15T08:43:17.019Z,26.10
2018-07-15T08:45:47.849Z,26.20
2018-07-15T08:48:18.733Z,26.40
2018-07-15T08:53:19.995Z,26.70
2018-07-15T08:55:50.625Z,26.60
2018-07-15T08:58:22.051Z,26.10
2018-07-15T09:00:52.852Z,26.50
2018-07-15T09:03:23.407Z,26.80
2018-07-15T09:05:54.362Z,26.90
2018-07-15T09:08:25.685Z,27.30
2018-07-15T09:10:56.525Z,27.30
2018-07-15T09:13:27.277Z,27.10
2018-07-15T09:15:57.785Z,26.80
2018-07-15T09:18:28.950Z,27.10
2018-07-15T09:20:59.685Z,27.20
2018-07-15T09:23:30.313Z,27.30
2018-07-15T09:26:01.154Z,27.40
2018-07-15T09:28:32.109Z,27.50
2018-07-15T09:31:02.882Z,27.50
2018-07-15T09:33:33.921Z,27.40
2018-07-15T09:36:07.165Z,27.20
2018-07-15T09:38:37.817Z,27.60
2018-07-15T09:41:08.553Z,26.70
2018-07-15T09:43:39.402Z,27.00
2018-07-15T09:46:10.534Z,25.20
2018-07-15T09:48:41.281Z,25.30
2018-07-15T09:51:12.421Z,26.30
2018-07-15T09:53:43.332Z,26.90
2018-07-15T09:56:14.082Z,27.50
2018-07-15T09:58:44.777Z,28.00
2018-07-15T10:01:15.632Z,28.60
2018-07-15T10:03:47.750Z,28.10
2018-07-15T10:06:18.523Z,27.20
2018-07-15T10:08:49.402Z,26.70
2018-07-15T10:11:20.435Z,26.90
2018-07-15T10:13:51.263Z,27.50
2018-07-15T10:16:21.792Z,28.10
2018-07-15T10:18:53.168Z,27.60
2018-07-15T10:21:23.869Z,27.80
2018-07-15T10:23:54.577Z,28.50
2018-07-15T10:26:25.281Z,28.70
2018-07-15T10:28:56.282Z,27.70
2018-07-15T10:31:27.078Z,27.20
2018-07-15T10:38:58.457Z,29.30
2018-07-15T10:41:29.173Z,29.50
2018-07-15T10:43:59.734Z,29.60
2018-07-15T10:46:31.032Z,30.00
2018-07-15T10:49:01.798Z,30.20
2018-07-15T10:51:32.474Z,30.60
2018-07-15T10:54:03.220Z,30.10
2018-07-15T10:56:34.724Z,30.60
2018-07-15T10:59:05.653Z,30.60
2018-07-15T11:01:36.550Z,30.40
2018-07-15T11:04:07.005Z,30.20
2018-07-15T11:06:37.879Z,30.60
2018-07-15T11:09:09.406Z,30.20
2018-07-15T11:11:40.080Z,29.90
2018-07-15T11:14:10.532Z,29.30
2018-07-15T11:16:41.434Z,27.90
2018-07-15T11:19:12.170Z,27.10
2018-07-15T11:21:43.003Z,26.80
2018-07-15T11:24:14.340Z,27.70
2018-07-15T11:26:45.038Z,28.40
2018-07-15T11:29:15.755Z,29.10
2018-07-15T11:31:46.480Z,29.40
2018-07-15T11:34:17.789Z,29.60
2018-07-15T11:36:48.708Z,29.90
2018-07-15T11:39:19.546Z,30.20
2018-07-15T11:41:51.685Z,30.50
2018-07-15T11:44:22.607Z,30.90
2018-07-15T11:46:53.650Z,31.10
2018-07-15T11:49:24.636Z,31.20
2018-07-15T11:51:55.919Z,31.20
2018-07-15T11:54:26.797Z,31.40
2018-07-15T11:56:57.806Z,30.90
2018-07-15T11:59:28.470Z,31.10
2018-07-15T12:01:59.552Z,30.70
2018-07-15T12:04:30.514Z,31.00
2018-07-15T12:07:01.261Z,31.00
2018-07-15T12:09:32.004Z,31.10
2018-07-15T12:12:03.098Z,31.30
2018-07-15T12:14:33.970Z,31.50
2018-07-15T12:17:05.339Z,31.10
2018-07-15T12:19:36.261Z,31.10
2018-07-15T12:22:07.618Z,31.20
2018-07-15T12:24:38.281Z,31.30
2018-07-15T12:27:09.217Z,31.40
2018-07-15T12:29:39.950Z,31.60
2018-07-15T12:32:11.219Z,31.60
2018-07-15T12:34:42.029Z,31.60
2018-07-15T12:37:12.649Z,31.70
2018-07-15T12:39:43.478Z,31.30
2018-07-15T12:42:14.720Z,31.40
2018-07-15T12:44:45.478Z,31.50
2018-07-15T12:47:16.237Z,31.00
2018-07-15T12:49:46.936Z,29.90
2018-07-15T12:52:17.889Z,30.10
2018-07-15T12:54:48.405Z,30.60
2018-07-15T12:57:19.282Z,30.90
2018-07-15T12:59:50.196Z,31.10
2018-07-15T13:02:21.313Z,31.30
2018-07-15T13:04:51.940Z,31.30
2018-07-15T13:07:22.913Z,31.30
2018-07-15T13:09:54.141Z,31.40
2018-07-15T13:12:24.699Z,31.40
2018-07-15T13:14:55.522Z,31.50
2018-07-15T13:17:26.417Z,31.70
2018-07-15T13:19:57.393Z,31.70
2018-07-15T13:22:28.850Z,31.60
2018-07-15T13:24:59.705Z,31.60
2018-07-15T13:27:30.814Z,32.00
2018-07-15T13:30:01.658Z,32.00
2018-07-15T13:32:32.490Z,31.60
2018-07-15T13:35:03.654Z,31.40
2018-07-15T13:37:34.595Z,31.40
2018-07-15T13:40:05.501Z,31.60
2018-07-15T13:42:36.949Z,31.60
2018-07-15T13:45:07.791Z,31.70
2018-07-15T13:47:38.868Z,31.60
2018-07-15T13:50:10.083Z,31.60
2018-07-15T13:52:40.921Z,31.70
2018-07-15T13:55:12.066Z,31.50
2018-07-15T13:57:42.893Z,31.40
2018-07-15T14:00:14.565Z,31.40
2018-07-15T14:02:46.041Z,31.50
2018-07-15T14:05:17.241Z,31.60
2018-07-15T14:07:47.918Z,30.50
2018-07-15T14:10:18.510Z,30.50
2018-07-15T14:12:49.770Z,30.60
2018-07-15T14:15:20.375Z,31.00
2018-07-15T14:17:51.601Z,31.40
2018-07-15T14:20:22.829Z,31.60
2018-07-15T14:22:53.567Z,30.60
2018-07-15T14:25:24.700Z,30.70
2018-07-15T14:27:55.309Z,31.20
2018-07-15T14:32:56.053Z,31.80
2018-07-15T14:35:26.780Z,31.90
2018-07-15T14:37:57.678Z,31.90
2018-07-15T14:40:28.495Z,32.00
2018-07-15T14:42:59.042Z,31.60
2018-07-15T14:45:30.108Z,31.90
2018-07-15T14:48:00.786Z,31.80
2018-07-15T14:50:31.573Z,31.50
2018-07-15T14:55:33.135Z,31.30
2018-07-15T14:58:04.137Z,31.50
2018-07-15T15:00:35.387Z,31.40
2018-07-15T15:03:06.703Z,31.30
2018-07-15T15:05:37.545Z,31.10
2018-07-15T15:08:08.862Z,31.40
2018-07-15T15:10:39.687Z,31.60
2018-07-15T15:13:10.605Z,31.40
2018-07-15T15:15:41.606Z,31.30
2018-07-15T15:18:14.868Z,30.90
2018-07-15T15:20:45.749Z,31.00
2018-07-15T15:23:16.366Z,31.00
2018-07-15T15:25:47.061Z,31.00
2018-07-15T15:28:19.162Z,31.30
2018-07-15T15:30:51.586Z,31.60
2018-07-15T15:33:22.402Z,31.50
2018-07-15T15:35:53.497Z,31.40
2018-07-15T15:38:24.291Z,31.10
2018-07-15T15:43:25.102Z,30.60
2018-07-15T15:45:56.329Z,30.40
2018-07-15T15:48:29.391Z,30.20
2018-07-15T15:51:08.779Z,30.10
2018-07-15T15:53:40.245Z,29.30
2018-07-15T15:56:11.649Z,29.10
2018-07-15T15:58:43.959Z,29.50
2018-07-15T16:01:14.814Z,29.80
2018-07-15T16:03:45.646Z,30.00
2018-07-15T16:06:17.586Z,30.10
2018-07-15T16:08:48.521Z,30.10
2018-07-15T16:11:19.387Z,30.10
2018-07-15T16:13:50.525Z,30.20
2018-07-15T16:16:21.301Z,30.30
2018-07-15T16:18:51.914Z,30.40
2018-07-15T16:21:23.477Z,30.30
2018-07-15T16:23:54.861Z,29.60
2018-07-15T16:26:25.773Z,29.60
2018-07-15T16:31:26.833Z,29.60
2018-07-15T16:33:57.391Z,29.60
2018-07-15T16:36:28.141Z,29.40
2018-07-15T16:38:59.540Z,29.60
2018-07-15T16:41:30.338Z,29.70
2018-07-15T16:44:01.373Z,29.50
2018-07-15T16:49:02.681Z,29.60
2018-07-15T16:51:33.471Z,29.60
2018-07-15T16:54:04.142Z,29.60
2018-07-15T16:56:34.981Z,29.30
2018-07-15T16:59:05.668Z,29.30
2018-07-15T17:01:36.434Z,29.20
2018-07-15T17:04:07.522Z,29.10
2018-07-15T17:06:38.145Z,29.00
2018-07-15T17:09:09.767Z,28.90
2018-07-15T17:11:40.801Z,28.60
2018-07-15T17:14:11.593Z,28.60
2018-07-15T17:16:42.822Z,28.60
2018-07-15T17:19:14.746Z,28.30
2018-07-15T17:21:45.527Z,28.20
2018-07-15T17:24:16.502Z,28.20
2018-07-15T17:26:47.767Z,28.00
2018-07-15T17:29:18.645Z,27.90
2018-07-15T17:31:50.057Z,28.00
2018-07-15T17:34:20.851Z,27.90
2018-07-15T17:36:52.197Z,27.80
2018-07-15T17:39:23.121Z,27.50
2018-07-15T17:41:53.854Z,27.30
2018-07-15T17:44:24.605Z,27.30
2018-07-15T17:46:55.253Z,27.20
2018-07-15T17:49:25.898Z,27.20
2018-07-15T17:51:56.966Z,27.10
2018-07-15T17:54:28.125Z,27.00
2018-07-15T17:56:59.313Z,27.00
2018-07-15T17:59:30.119Z,26.90
2018-07-15T18:02:00.733Z,26.80
2018-07-15T18:04:31.723Z,26.60
2018-07-15T18:07:02.847Z,26.50
2018-07-15T18:09:33.588Z,26.40
2018-07-15T18:12:04.141Z,26.30
2018-07-15T18:14:35.186Z,26.20
2018-07-15T18:17:06.081Z,26.10
2018-07-15T18:19:36.677Z,26.10
2018-07-15T18:22:10.608Z,26.00
2018-07-15T18:24:41.557Z,25.90
2018-07-15T18:27:12.218Z,25.80
2018-07-15T18:29:42.965Z,25.60
2018-07-15T18:32:13.925Z,25.50
2018-07-15T18:34:44.581Z,25.30
2018-07-15T18:37:15.710Z,25.40
2018-07-15T18:39:46.528Z,25.30
2018-07-15T18:42:17.421Z,25.20
2018-07-15T18:44:49.946Z,25.10
2018-07-15T18:47:20.861Z,25.10
2018-07-15T18:49:51.860Z,25.10
2018-07-15T18:52:22.950Z,25.00
2018-07-15T18:54:53.678Z,24.90
2018-07-15T18:57:24.502Z,24.80
2018-07-15T18:59:55.459Z,24.80
2018-07-15T19:02:26.182Z,24.60
2018-07-15T19:04:57.000Z,24.50
2018-07-15T19:07:27.794Z,24.40
2018-07-15T19:09:58.642Z,24.40
2018-07-15T19:12:29.454Z,24.40
2018-07-15T19:15:00.221Z,24.40
2018-07-15T19:17:30.993Z,24.20
2018-07-15T19:20:01.735Z,24.20
2018-07-15T19:22:32.857Z,24.20
2018-07-15T19:25:03.693Z,24.20
2018-07-15T19:27:34.512Z,24.10
2018-07-15T19:30:05.855Z,24.00
2018-07-15T19:32:37.103Z,23.90
2018-07-15T19:35:08.181Z,23.80
2018-07-15T19:40:09.169Z,23.70
2018-07-15T19:45:10.127Z,23.70
2018-07-15T19:47:40.836Z,23.60
2018-07-15T19:50:11.814Z,23.50
2018-07-15T19:52:42.954Z,23.40
2018-07-15T19:57:43.981Z,23.30
2018-07-15T20:00:15.135Z,23.20
2018-07-15T20:02:46.230Z,23.10
2018-07-15T20:07:47.787Z,23.00
2018-07-15T20:10:18.869Z,22.90
2018-07-15T20:12:49.834Z,22.80
2018-07-15T20:15:20.740Z,22.80
2018-07-15T20:17:51.433Z,22.70
2018-07-15T20:20:22.543Z,22.70
2018-07-15T20:22:53.805Z,22.70
2018-07-15T20:25:24.513Z,22.60
2018-07-15T20:27:55.775Z,22.50
2018-07-15T20:30:26.978Z,22.40
2018-07-15T20:32:57.754Z,22.30
2018-07-15T20:35:28.729Z,22.30
2018-07-15T20:38:00.497Z,22.20
2018-07-15T20:40:31.486Z,22.20
2018-07-15T20:43:02.486Z,22.10
2018-07-15T20:45:33.482Z,22.10
2018-07-15T20:48:04.331Z,22.00
2018-07-15T20:50:35.306Z,21.90
2018-07-15T20:53:06.570Z,21.80
2018-07-15T20:55:37.597Z,21.80
2018-07-15T20:58:08.409Z,21.70
2018-07-15T21:00:39.850Z,21.70
2018-07-15T21:03:10.726Z,21.70
2018-07-15T21:05:41.506Z,21.60
2018-07-15T21:08:12.088Z,21.60
2018-07-15T21:10:43.193Z,21.50
2018-07-15T21:13:14.287Z,21.40
2018-07-15T21:15:45.063Z,21.40
2018-07-15T21:20:45.875Z,21.20
2018-07-15T21:23:17.200Z,21.10
2018-07-15T21:25:48.111Z,21.00
2018-07-15T21:28:18.878Z,20.90
2018-07-15T21:30:50.060Z,20.90
2018-07-15T21:33:20.933Z,20.80
2018-07-15T21:35:51.836Z,20.80
2018-07-15T21:38:22.601Z,20.70
2018-07-15T21:40:53.641Z,20.70
2018-07-15T21:43:24.332Z,20.60
2018-07-15T21:45:55.431Z,20.60
2018-07-15T21:48:26.389Z,20.50
2018-07-15T21:50:57.629Z,20.30
2018-07-15T21:53:28.313Z,20.30
2018-07-15T21:55:59.149Z,20.30
2018-07-15T21:58:29.933Z,20.20
2018-07-15T22:01:00.737Z,20.20
2018-07-15T22:03:31.505Z,20.10
2018-07-15T22:06:02.349Z,20.10
2018-07-15T22:08:55.959Z,20.00
2018-07-15T22:11:26.997Z,20.00
2018-07-15T22:13:57.860Z,20.00
2018-07-15T22:16:28.730Z,20.00
2018-07-15T22:18:59.397Z,19.90
2018-07-15T22:21:30.125Z,19.90
2018-07-15T22:24:01.062Z,19.90
2018-07-15T22:29:02.452Z,19.80
2018-07-15T22:31:33.578Z,19.80
2018-07-15T22:34:04.566Z,19.70
2018-07-15T22:36:37.469Z,19.70
2018-07-15T22:39:08.584Z,19.50
2018-07-15T22:41:39.487Z,19.50
2018-07-15T22:44:10.282Z,19.40
2018-07-15T22:46:41.049Z,19.40
2018-07-15T22:49:11.913Z,19.40
2018-07-15T22:51:42.889Z,19.40
2018-07-15T22:54:13.803Z,19.40
2018-07-15T22:56:44.598Z,19.30
2018-07-15T22:59:15.550Z,19.30
2018-07-15T23:01:46.396Z,19.30
2018-07-15T23:04:17.258Z,19.30
2018-07-15T23:06:48.007Z,19.30
2018-07-15T23:09:19.196Z,19.20
2018-07-15T23:11:49.943Z,19.20
2018-07-15T23:14:20.509Z,19.10
2018-07-15T23:16:52.001Z,19.10
2018-07-15T23:19:22.902Z,18.90
2018-07-15T23:21:54.677Z,18.70
2018-07-15T23:24:25.792Z,18.60
2018-07-15T23:26:56.609Z,18.50
2018-07-15T23:29:27.635Z,18.50
2018-07-15T23:31:58.614Z,18.50
2018-07-15T23:34:29.289Z,18.60
2018-07-15T23:37:00.519Z,18.60
2018-07-15T23:39:31.293Z,18.60
2018-07-15T23:42:02.372Z,18.70
2018-07-15T23:44:33.433Z,18.70
2018-07-15T23:47:04.203Z,18.70
2018-07-15T23:49:35.035Z,18.60
2018-07-15T23:52:07.467Z,18.60
2018-07-15T23:54:38.514Z,18.60
2018-07-15T23:57:09.286Z,18.50
2018-07-15T23:59:40.308Z,18.40
